createdAt,value
2019-04-29T00:00:52.939Z,99.1150
2019-04-29T00:01:59.002Z,99.1012
2019-04-29T00:03:04.321Z,98.9288
2019-04-29T00:04:09.913Z,98.5580
2019-04-29T00:05:15.766Z,98.4619
2019-04-29T00:06:20.222Z,98.1552
2019-04-29T00:07:26.356Z,98.0026
2019-04-29T00:08:31.902Z,97.9995
2019-04-29T00:09:37.096Z,98.0316
2019-04-29T00:10:41.289Z,98.2101
2019-04-29T00:11:46.882Z,98.3825
2019-04-29T00:12:51.301Z,98.4436
2019-04-29T00:13:56.864Z,98.6068
2019-04-29T00:15:01.863Z,98.7076
2019-04-29T00:16:06.880Z,98.4436
2019-04-29T00:17:12.514Z,98.5992
2019-04-29T00:18:17.982Z,98.6130
2019-04-29T00:19:23.386Z,98.5855
2019-04-29T00:20:28.969Z,98.5428
2019-04-29T00:21:34.882Z,98.4939
2019-04-29T00:22:39.962Z,98.5016
2019-04-29T00:23:46.110Z,98.6450
2019-04-29T00:24:51.195Z,98.7717
2019-04-29T00:25:57.057Z,98.9151
2019-04-29T00:27:02.885Z,98.8693
2019-04-29T00:28:08.115Z,98.8510
2019-04-29T00:29:13.619Z,98.7808
2019-04-29T00:30:19.941Z,98.6664
2019-04-29T00:31:25.235Z,98.5153
2019-04-29T00:32:30.925Z,98.4390
2019-04-29T00:33:37.329Z,98.4207
2019-04-29T00:34:42.898Z,98.0529
2019-04-29T00:35:48.862Z,98.0682
2019-04-29T00:36:53.944Z,98.2361
2019-04-29T00:37:59.896Z,98.3551
2019-04-29T00:39:06.009Z,98.6038
2019-04-29T00:40:11.811Z,98.5885
2019-04-29T00:41:17.921Z,98.1445
2019-04-29T00:42:23.225Z,97.8469
2019-04-29T00:43:28.381Z,98.0941
2019-04-29T00:44:33.873Z,98.1491
2019-04-29T00:45:38.246Z,97.6181
2019-04-29T00:46:43.793Z,97.2747
2019-04-29T00:47:48.854Z,96.9680
2019-04-29T00:48:53.967Z,96.7544
2019-04-29T00:49:59.218Z,96.8582
2019-04-29T00:51:05.009Z,97.1023
2019-04-29T00:52:09.896Z,97.0382
2019-04-29T00:53:31.482Z,96.7529
2019-04-29T00:54:37.248Z,97.1298
2019-04-29T00:55:42.268Z,96.7758
2019-04-29T00:56:47.241Z,97.2015
2019-04-29T00:57:51.271Z,97.3816
2019-04-29T00:58:55.836Z,97.3999
2019-04-29T01:00:00.870Z,97.3907
2019-04-29T01:01:05.835Z,97.1801
2019-04-29T01:02:10.922Z,96.9650
2019-04-29T01:03:16.899Z,97.2442
2019-04-29T01:04:21.998Z,97.6730
2019-04-29T01:05:27.937Z,97.6135
2019-04-29T01:06:33.877Z,97.4273
2019-04-29T01:07:38.213Z,97.3571
2019-04-29T01:08:43.879Z,97.0367
2019-04-29T01:09:48.859Z,96.6628
2019-04-29T01:10:53.953Z,96.5896
2019-04-29T01:11:59.853Z,96.8353
2019-04-29T01:13:04.818Z,97.2747
2019-04-29T01:14:10.801Z,97.3541
2019-04-29T01:15:15.946Z,96.8994
2019-04-29T01:16:21.295Z,96.9406
2019-04-29T01:17:26.247Z,96.3088
2019-04-29T01:18:32.294Z,95.9167
2019-04-29T01:19:37.860Z,95.6359
2019-04-29T01:20:43.828Z,96.1593
2019-04-29T01:21:48.302Z,95.4406
2019-04-29T01:22:53.232Z,95.2880
2019-04-29T01:23:58.211Z,95.3079
2019-04-29T01:25:03.865Z,95.5001
2019-04-29T01:26:08.880Z,96.0342
2019-04-29T01:27:13.908Z,96.2325
2019-04-29T01:28:18.232Z,96.1944
2019-04-29T01:31:46.903Z,96.8368
2019-04-29T01:31:46.903Z,96.7407
2019-04-29T01:32:52.215Z,97.1328
2019-04-29T01:33:57.218Z,97.2534
2019-04-29T01:35:02.751Z,97.2931
2019-04-29T01:36:07.935Z,97.3175
2019-04-29T01:37:13.805Z,97.6654
2019-04-29T01:38:18.837Z,97.2396
2019-04-29T01:39:24.019Z,97.3083
2019-04-29T01:40:29.917Z,97.0520
2019-04-29T01:41:35.948Z,96.4370
2019-04-29T01:42:41.825Z,96.3378
2019-04-29T01:43:46.871Z,96.2585
2019-04-29T01:44:51.903Z,96.3638
2019-04-29T01:45:56.014Z,96.0540
2019-04-29T01:47:01.912Z,96.2631
2019-04-29T01:48:07.983Z,96.3928
2019-04-29T01:49:13.900Z,96.5606
2019-04-29T01:50:19.226Z,96.5530
2019-04-29T01:51:24.209Z,96.6491
2019-04-29T01:52:29.875Z,96.4981
2019-04-29T01:53:34.800Z,96.3790
2019-04-29T01:54:39.815Z,95.8419
2019-04-29T01:55:44.855Z,96.3973
2019-04-29T01:56:49.870Z,96.4202
2019-04-29T01:57:54.926Z,95.6497
2019-04-29T01:58:59.841Z,96.0983
2019-04-29T02:00:04.891Z,96.0067
2019-04-29T02:01:09.918Z,96.0037
2019-04-29T02:02:16.018Z,96.2280
2019-04-29T02:03:22.004Z,96.6125
2019-04-29T02:04:27.949Z,96.8261
2019-04-29T02:05:33.805Z,96.9238
2019-04-29T02:06:38.949Z,96.8643
2019-04-29T02:07:44.961Z,96.5667
2019-04-29T02:08:50.604Z,96.6567
2019-04-29T02:09:55.560Z,96.5530
2019-04-29T02:11:00.199Z,96.7315
2019-04-29T02:12:13.150Z,97.3037
2019-04-29T02:13:34.122Z,97.1389
2019-04-29T02:15:04.270Z,97.0474
2019-04-29T02:16:09.224Z,98.0438
2019-04-29T02:17:14.217Z,97.5738
2019-04-29T02:18:19.817Z,97.8531
2019-04-29T02:19:24.950Z,97.9889
2019-04-29T02:20:30.879Z,97.8698
2019-04-29T02:21:35.909Z,98.0484
2019-04-29T02:22:41.983Z,97.6089
2019-04-29T02:23:47.948Z,97.8119
2019-04-29T02:24:53.868Z,97.5784
2019-04-29T02:25:58.667Z,97.3678
2019-04-29T02:27:05.729Z,97.0245
2019-04-29T02:28:10.225Z,96.6628
2019-04-29T02:29:15.886Z,96.8414
2019-04-29T02:30:20.311Z,97.0275
2019-04-29T02:31:25.956Z,96.9879
2019-04-29T02:32:32.110Z,97.4533
2019-04-29T02:33:37.213Z,97.6333
2019-04-29T02:34:42.218Z,97.8851
2019-04-29T02:35:47.897Z,98.0438
2019-04-29T02:36:53.830Z,97.9675
2019-04-29T02:37:58.865Z,98.0987
2019-04-29T02:39:03.824Z,98.2971
2019-04-29T02:40:08.905Z,98.5168
2019-04-29T02:41:14.907Z,98.4375
2019-04-29T02:42:20.899Z,98.4482
2019-04-29T02:43:26.945Z,98.4924
2019-04-29T02:44:32.223Z,98.5443
2019-04-29T02:45:38.256Z,98.6358
2019-04-29T02:46:43.809Z,98.7991
2019-04-29T02:47:48.947Z,98.9319
2019-04-29T02:48:55.082Z,99.1562
2019-04-29T02:50:01.002Z,99.2767
2019-04-29T02:51:06.222Z,99.3713
2019-04-29T02:52:11.230Z,99.4492
2019-04-29T02:53:16.765Z,99.5056
2019-04-29T02:54:21.892Z,99.4095
2019-04-29T02:55:26.894Z,99.3988
2019-04-29T02:56:32.966Z,99.5102
2019-04-29T02:57:38.928Z,99.4858
2019-04-29T02:58:44.235Z,99.6231
2019-04-29T02:59:49.949Z,99.6704
2019-04-29T03:00:56.134Z,99.7070
2019-04-29T03:02:29.735Z,99.8245
2019-04-29T03:03:34.800Z,99.8520
2019-04-29T03:04:39.749Z,99.8535
2019-04-29T03:05:44.820Z,99.9161
2019-04-29T03:06:49.870Z,99.8535
2019-04-29T03:07:54.959Z,99.8611
2019-04-29T03:09:00.891Z,99.8352
2019-04-29T03:10:06.226Z,99.8749
2019-04-29T03:11:11.867Z,99.8764
2019-04-29T03:12:17.200Z,100.0000
2019-04-29T03:13:22.968Z,100.0000
2019-04-29T03:14:28.846Z,100.0000
2019-04-29T03:15:33.910Z,100.0000
2019-04-29T03:16:38.887Z,100.0000
2019-04-29T03:17:45.016Z,100.0000
2019-04-29T03:18:51.147Z,100.0000
2019-04-29T03:19:56.995Z,100.0000
2019-04-29T03:21:01.886Z,100.0000
2019-04-29T03:22:06.258Z,100.0000
2019-04-29T03:23:11.897Z,100.0000
2019-04-29T03:24:17.117Z,100.0000
2019-04-29T03:25:22.877Z,100.0000
2019-04-29T03:26:26.874Z,100.0000
2019-04-29T03:27:32.191Z,100.0000
2019-04-29T03:28:37.851Z,100.0000
2019-04-29T03:29:42.446Z,100.0000
2019-04-29T03:30:47.881Z,99.8886
2019-04-29T03:31:52.967Z,99.9344
2019-04-29T03:32:58.892Z,99.8352
2019-04-29T03:34:04.924Z,99.7620
2019-04-29T03:35:09.939Z,99.7299
2019-04-29T03:36:15.969Z,99.6368
2019-04-29T03:37:21.749Z,99.6002
2019-04-29T03:38:26.206Z,99.4858
2019-04-29T03:39:32.310Z,99.3683
2019-04-29T03:40:37.834Z,99.2584
2019-04-29T03:41:42.858Z,99.3713
2019-04-29T03:42:47.896Z,99.4369
2019-04-29T03:43:53.879Z,99.4446
2019-04-29T03:44:58.275Z,99.3820
2019-04-29T03:46:03.811Z,99.2935
2019-04-29T03:47:08.211Z,99.0204
2019-04-29T03:48:13.867Z,98.7503
2019-04-29T03:49:19.045Z,98.7320
2019-04-29T03:50:29.046Z,98.8876
2019-04-29T03:51:34.899Z,98.7900
2019-04-29T03:52:40.847Z,98.6404
2019-04-29T03:53:46.104Z,98.4024
2019-04-29T03:54:51.872Z,98.1735
2019-04-29T03:55:56.222Z,98.1628
2019-04-29T03:57:01.819Z,98.1003
2019-04-29T03:58:06.819Z,97.9065
2019-04-29T03:59:11.906Z,97.7462
2019-04-29T04:00:17.862Z,97.8241
2019-04-29T04:01:22.234Z,97.9065
2019-04-29T04:02:27.960Z,97.9950
2019-04-29T04:03:34.064Z,98.1353
2019-04-29T04:04:39.914Z,98.3688
2019-04-29T04:05:45.857Z,98.5489
2019-04-29T04:06:51.432Z,98.6175
2019-04-29T04:07:56.887Z,98.6450
2019-04-29T04:09:06.005Z,98.7945
2019-04-29T04:10:11.892Z,99.0051
2019-04-29T04:11:17.527Z,99.1882
2019-04-29T04:12:22.821Z,99.3500
2019-04-29T04:13:27.209Z,99.3942
2019-04-29T04:14:32.921Z,99.4690
2019-04-29T04:15:39.382Z,99.5788
2019-04-29T04:16:44.971Z,99.5407
2019-04-29T04:17:50.950Z,99.4583
2019-04-29T04:18:56.965Z,99.2294
2019-04-29T04:20:30.518Z,99.3027
2019-04-29T04:21:36.883Z,99.6139
2019-04-29T04:22:42.227Z,99.7467
2019-04-29T04:23:47.809Z,99.7559
2019-04-29T04:24:51.870Z,99.7940
2019-04-29T04:25:56.885Z,99.8840
2019-04-29T04:27:02.861Z,99.7711
2019-04-29T04:28:07.942Z,99.7116
2019-04-29T04:29:13.826Z,99.6475
2019-04-29T04:30:41.925Z,99.6429
2019-04-29T04:31:47.823Z,99.6872
2019-04-29T04:32:52.973Z,99.5499
2019-04-29T04:33:58.955Z,99.3759
2019-04-29T04:35:04.225Z,99.2447
2019-04-29T04:36:09.533Z,99.0021
2019-04-29T04:37:14.861Z,98.8357
2019-04-29T04:38:19.219Z,98.5809
2019-04-29T04:39:24.913Z,98.4100
2019-04-29T04:40:30.833Z,98.2284
2019-04-29T04:41:35.940Z,98.0362
2019-04-29T04:42:42.019Z,98.3734
2019-04-29T04:43:50.670Z,98.1140
2019-04-29T04:44:55.934Z,98.2635
2019-04-29T04:46:01.854Z,98.4833
2019-04-29T04:47:06.878Z,98.4421
2019-04-29T04:48:12.905Z,98.9319
2019-04-29T04:49:18.914Z,99.2676
2019-04-29T04:50:25.547Z,99.2905
2019-04-29T04:51:31.233Z,99.2111
2019-04-29T04:52:36.901Z,99.5819
2019-04-29T04:53:42.863Z,99.7070
2019-04-29T04:54:48.011Z,99.6200
2019-04-29T04:55:53.910Z,99.7436
2019-04-29T04:56:59.859Z,99.6933
2019-04-29T04:58:04.951Z,99.5697
2019-04-29T04:59:10.952Z,99.5224
2019-04-29T05:00:20.031Z,99.4034
2019-04-29T05:01:26.159Z,99.3133
2019-04-29T05:02:31.192Z,99.1760
2019-04-29T05:03:36.951Z,98.9883
2019-04-29T05:04:41.223Z,98.8129
2019-04-29T05:05:47.184Z,98.6450
2019-04-29T05:06:51.212Z,98.3932
2019-04-29T05:07:56.296Z,98.2696
2019-04-29T05:09:01.208Z,98.3749
2019-04-29T05:10:06.793Z,98.4466
2019-04-29T05:11:11.926Z,98.1872
2019-04-29T05:12:17.832Z,97.8210
2019-04-29T05:13:28.168Z,97.3663
2019-04-29T05:14:32.928Z,96.4782
2019-04-29T05:15:37.900Z,96.0266
2019-04-29T05:16:43.875Z,96.1212
2019-04-29T05:17:52.870Z,95.4131
2019-04-29T05:18:58.913Z,95.4589
2019-04-29T05:20:04.990Z,95.2850
2019-04-29T05:21:10.196Z,95.1782
2019-04-29T05:22:17.039Z,95.0637
2019-04-29T05:23:23.140Z,95.4498
2019-04-29T05:24:28.197Z,95.9380
2019-04-29T05:25:34.287Z,94.7906
2019-04-29T05:26:39.929Z,95.0698
2019-04-29T05:27:45.882Z,95.8709
2019-04-29T05:28:50.936Z,95.4910
2019-04-29T05:29:56.225Z,95.1644
2019-04-29T05:31:02.962Z,95.1919
2019-04-29T05:32:08.858Z,96.1898
2019-04-29T05:33:14.766Z,95.6420
2019-04-29T05:34:20.197Z,95.3491
2019-04-29T05:35:26.433Z,96.6583
2019-04-29T05:36:34.056Z,96.6934
2019-04-29T05:37:41.247Z,96.1761
2019-04-29T05:38:47.004Z,95.6649
2019-04-29T05:39:52.813Z,95.4040
2019-04-29T05:40:57.938Z,95.2743
2019-04-29T05:42:07.135Z,96.4065
2019-04-29T05:43:13.899Z,94.3496
2019-04-29T05:44:19.898Z,94.5571
2019-04-29T05:45:25.957Z,92.5246
2019-04-29T05:46:31.913Z,92.3857
2019-04-29T05:47:37.903Z,92.2988
2019-04-29T05:48:43.832Z,91.8318
2019-04-29T05:49:48.257Z,91.4580
2019-04-29T05:51:07.912Z,90.6691
2019-04-29T05:52:13.832Z,88.9586
2019-04-29T05:53:19.121Z,89.8222
2019-04-29T05:54:26.950Z,91.5938
2019-04-29T05:55:34.213Z,91.2795
2019-04-29T05:56:39.856Z,91.6075
2019-04-29T05:57:44.222Z,90.8476
2019-04-29T05:58:49.905Z,93.0053
2019-04-29T05:59:54.270Z,90.6523
2019-04-29T06:00:59.890Z,91.8517
2019-04-29T06:02:05.851Z,92.7718
2019-04-29T06:03:11.119Z,93.4295
2019-04-29T06:04:18.232Z,92.5338
2019-04-29T06:05:24.002Z,92.7718
2019-04-29T06:06:30.063Z,91.4260
2019-04-29T06:07:35.938Z,90.3716
2019-04-29T06:08:41.739Z,89.4438
2019-04-29T06:09:47.172Z,88.9448
2019-04-29T06:10:53.039Z,88.0156
2019-04-29T06:11:59.109Z,86.9261
2019-04-29T06:13:07.397Z,85.3056
2019-04-29T06:14:12.211Z,84.7974
2019-04-29T06:15:17.925Z,84.9119
2019-04-29T06:16:23.221Z,84.2664
2019-04-29T06:17:28.884Z,81.7945
2019-04-29T06:18:34.926Z,82.9664
2019-04-29T06:19:41.095Z,82.3926
2019-04-29T06:20:45.205Z,84.1459
2019-04-29T06:21:51.112Z,86.0929
2019-04-29T06:22:57.006Z,87.5486
2019-04-29T06:24:04.200Z,87.9286
2019-04-29T06:25:12.059Z,90.0252
2019-04-29T06:26:17.948Z,88.7510
2019-04-29T06:27:23.881Z,89.3828
2019-04-29T06:28:30.083Z,90.0511
2019-04-29T06:29:35.952Z,89.4331
2019-04-29T06:30:45.173Z,88.6290
2019-04-29T06:31:51.973Z,88.8746
2019-04-29T06:32:57.200Z,88.1422
2019-04-29T06:34:05.347Z,91.5984
2019-04-29T06:35:14.159Z,89.0455
2019-04-29T06:36:19.820Z,89.6529
2019-04-29T06:37:24.974Z,88.3726
2019-04-29T06:38:30.806Z,87.9454
2019-04-29T06:39:36.637Z,86.7201
2019-04-29T06:40:41.112Z,87.5929
2019-04-29T06:41:51.154Z,88.4627
2019-04-29T06:42:56.954Z,89.1463
2019-04-29T06:44:06.259Z,88.6839
2019-04-29T06:45:13.090Z,87.3091
2019-04-29T06:46:18.722Z,87.7638
2019-04-29T06:47:24.215Z,86.0227
2019-04-29T06:48:29.473Z,87.1855
2019-04-29T06:49:34.941Z,88.0293
2019-04-29T06:50:40.223Z,88.6976
2019-04-29T06:52:06.238Z,87.2221
2019-04-29T06:53:16.378Z,87.0359
2019-04-29T06:54:30.095Z,85.5924
2019-04-29T06:55:36.191Z,86.2623
2019-04-29T06:56:41.212Z,88.5908
2019-04-29T06:57:46.223Z,88.1575
2019-04-29T06:58:51.207Z,88.5084
2019-04-29T06:59:57.754Z,86.0365
2019-04-29T07:01:03.148Z,83.9170
2019-04-29T07:02:09.534Z,84.7913
2019-04-29T07:03:21.031Z,84.5350
2019-04-29T07:04:30.605Z,84.9577
2019-04-29T07:05:40.742Z,85.8351
2019-04-29T07:06:57.322Z,84.2756
2019-04-29T07:07:59.980Z,84.7929
2019-04-29T07:09:05.209Z,85.5940
2019-04-29T07:10:11.535Z,82.3697
2019-04-29T07:11:17.017Z,83.1723
2019-04-29T07:12:22.843Z,83.0671
2019-04-29T07:13:29.198Z,84.0009
2019-04-29T07:14:38.350Z,83.6744
2019-04-29T07:15:43.407Z,84.1199
2019-04-29T07:17:04.995Z,83.6103
2019-04-29T07:18:10.993Z,82.9618
2019-04-29T07:19:16.791Z,83.1128
2019-04-29T07:20:22.031Z,85.0309
2019-04-29T07:21:27.584Z,84.8890
2019-04-29T07:22:33.329Z,84.9851
2019-04-29T07:23:38.211Z,82.4613
2019-04-29T07:24:45.688Z,83.7766
2019-04-29T07:25:51.027Z,84.2161
2019-04-29T07:27:07.422Z,82.6642
2019-04-29T07:29:32.942Z,75.5596
2019-04-29T07:31:00.437Z,70.4356
2019-04-29T07:31:49.487Z,76.5347
2019-04-29T07:34:09.196Z,77.8576
2019-04-29T07:35:14.229Z,76.6659
2019-04-29T07:36:22.740Z,78.4619
2019-04-29T07:37:29.768Z,76.7071
2019-04-29T07:38:46.432Z,77.0321
2019-04-29T07:39:53.298Z,79.8474
2019-04-29T07:41:03.466Z,80.3601
2019-04-29T07:42:10.147Z,81.5091
2019-04-29T07:43:16.816Z,84.6143
2019-04-29T07:44:23.395Z,85.7389
2019-04-29T07:45:29.185Z,85.0614
2019-04-29T07:46:55.465Z,84.4526
2019-04-29T07:47:56.330Z,84.3992
2019-04-29T07:49:08.169Z,83.4745
2019-04-29T07:50:13.330Z,87.3106
2019-04-29T07:51:19.466Z,84.5670
2019-04-29T07:52:29.605Z,85.2689
2019-04-29T07:53:44.493Z,83.9414
2019-04-29T07:54:48.263Z,85.3193
2019-04-29T07:55:57.419Z,85.5924
2019-04-29T07:57:02.881Z,84.3717
2019-04-29T07:58:12.964Z,82.5162
2019-04-29T07:59:19.054Z,84.0360
2019-04-29T08:00:25.096Z,83.4424
2019-04-29T08:01:31.249Z,83.9277
2019-04-29T08:02:36.912Z,84.1276
2019-04-29T08:03:42.920Z,83.9307
2019-04-29T08:04:48.218Z,86.1570
2019-04-29T08:05:53.240Z,85.4551
2019-04-29T08:06:59.168Z,86.3615
2019-04-29T08:08:05.118Z,85.7069
2019-04-29T08:09:11.663Z,84.0513
2019-04-29T08:10:23.702Z,83.1891
2019-04-29T08:11:26.352Z,84.3885
2019-04-29T08:12:31.891Z,84.3931
2019-04-29T08:13:36.269Z,82.1225
2019-04-29T08:14:42.310Z,82.9603
2019-04-29T08:15:48.359Z,83.0335
2019-04-29T08:16:54.163Z,84.2741
2019-04-29T08:18:06.480Z,83.5569
2019-04-29T08:19:24.726Z,83.1220
2019-04-29T08:20:35.435Z,81.3687
2019-04-29T08:21:45.557Z,81.2161
2019-04-29T08:22:53.770Z,83.6606
2019-04-29T08:23:58.230Z,82.6307
2019-04-29T08:25:04.859Z,81.0346
2019-04-29T08:26:09.233Z,81.1566
2019-04-29T08:27:14.199Z,82.3758
2019-04-29T08:28:19.218Z,80.1953
2019-04-29T08:29:25.049Z,80.4929
2019-04-29T08:30:30.235Z,81.4130
2019-04-29T08:31:38.654Z,80.3754
2019-04-29T08:34:03.743Z,81.8524
2019-04-29T08:36:32.417Z,83.1632
2019-04-29T08:37:38.603Z,83.2456
2019-04-29T08:38:44.116Z,81.0437
2019-04-29T08:40:18.814Z,81.2207
2019-04-29T08:41:29.620Z,84.5045
2019-04-29T08:42:37.355Z,81.9959
2019-04-29T08:43:46.211Z,81.7716
2019-04-29T08:44:54.768Z,80.8270
2019-04-29T08:46:03.296Z,80.3525
2019-04-29T08:47:09.239Z,78.5977
2019-04-29T08:48:14.214Z,77.5280
2019-04-29T08:50:32.200Z,76.4141
2019-04-29T08:51:37.244Z,78.2971
2019-04-29T08:52:43.205Z,77.9126
2019-04-29T08:53:49.660Z,78.7396
2019-04-29T08:54:55.312Z,74.1649
2019-04-29T08:56:05.556Z,76.4828
2019-04-29T08:57:17.085Z,73.2555
2019-04-29T08:58:22.218Z,74.1894
2019-04-29T08:59:27.228Z,68.1422
2019-04-29T09:00:33.176Z,66.3096
2019-04-29T09:01:38.201Z,65.5650
2019-04-29T09:02:47.155Z,67.2587
2019-04-29T09:03:57.942Z,69.0715
2019-04-29T09:05:06.781Z,72.1279
2019-04-29T09:06:16.275Z,68.6915
2019-04-29T09:07:22.282Z,60.0061
2019-04-29T09:08:32.932Z,55.6588
2019-04-29T09:09:41.530Z,61.6724
2019-04-29T09:10:50.022Z,67.0344
2019-04-29T09:11:57.106Z,64.1489
2019-04-29T09:13:02.246Z,64.6494
2019-04-29T09:14:08.538Z,65.1804
2019-04-29T09:15:17.043Z,68.2200
2019-04-29T09:16:23.256Z,68.5908
2019-04-29T09:17:29.685Z,70.8659
2019-04-29T09:18:34.228Z,75.5093
2019-04-29T09:20:57.958Z,70.4494
2019-04-29T09:23:26.106Z,70.8598
2019-04-29T09:27:09.629Z,70.2876
2019-04-29T09:28:18.320Z,69.9992
2019-04-29T09:29:27.214Z,68.3665
2019-04-29T09:30:32.208Z,69.9947
2019-04-29T09:31:37.218Z,69.3874
2019-04-29T09:32:41.256Z,70.1869
2019-04-29T09:33:50.970Z,71.0887
2019-04-29T09:35:02.540Z,72.5811
2019-04-29T09:36:09.638Z,74.2580
2019-04-29T09:37:32.230Z,74.6014
2019-04-29T09:38:38.451Z,75.1415
2019-04-29T09:39:45.551Z,75.5276
2019-04-29T09:40:54.607Z,75.0912
2019-04-29T09:43:21.466Z,71.3817
2019-04-29T09:44:30.580Z,71.6014
2019-04-29T09:45:39.450Z,71.3634
2019-04-29T09:46:44.263Z,70.0816
2019-04-29T09:48:06.142Z,71.6106
2019-04-29T09:49:12.229Z,72.2011
2019-04-29T09:51:47.241Z,72.1340
2019-04-29T09:52:52.221Z,67.7333
2019-04-29T09:57:49.880Z,63.3112
2019-04-29T09:58:56.296Z,62.8580
2019-04-29T10:00:05.467Z,67.3640
2019-04-29T10:01:13.878Z,67.9042
2019-04-29T10:03:40.291Z,67.8080
2019-04-29T10:04:56.802Z,67.0237
2019-04-29T10:06:02.225Z,66.8330
2019-04-29T10:07:08.205Z,69.9214
2019-04-29T10:09:37.969Z,67.6051
2019-04-29T10:10:43.236Z,70.7790
2019-04-29T10:11:50.218Z,66.0868
2019-04-29T10:14:15.243Z,68.6214
2019-04-29T10:15:21.230Z,72.8511
2019-04-29T10:16:26.381Z,66.1967
2019-04-29T10:18:48.242Z,67.0420
2019-04-29T10:21:10.240Z,68.6870
2019-04-29T10:23:31.228Z,67.1534
2019-04-29T10:24:36.631Z,66.4439
2019-04-29T10:25:44.360Z,63.4256
2019-04-29T10:26:52.999Z,65.3254
2019-04-29T10:27:58.242Z,64.5258
2019-04-29T10:29:13.722Z,64.8219
2019-04-29T10:30:26.770Z,64.6494
2019-04-29T10:32:48.860Z,67.3777
2019-04-29T10:33:54.806Z,65.4917
2019-04-29T10:35:08.063Z,67.1885
2019-04-29T10:37:33.267Z,64.5350
2019-04-29T10:40:10.960Z,65.6550
2019-04-29T10:41:19.091Z,65.8900
2019-04-29T10:42:24.249Z,62.8763
2019-04-29T10:44:44.279Z,61.3382
2019-04-29T10:45:51.110Z,66.0945
2019-04-29T10:46:56.237Z,63.8849
2019-04-29T10:48:02.757Z,64.5930
2019-04-29T10:50:23.903Z,61.5503
2019-04-29T10:51:29.230Z,63.8437
2019-04-29T10:52:38.672Z,63.5767
2019-04-29T10:53:46.718Z,63.4958
2019-04-29T10:54:56.743Z,64.6616
2019-04-29T10:56:05.559Z,65.0278
2019-04-29T10:57:14.744Z,62.5254
2019-04-29T10:58:28.144Z,62.2873
2019-04-29T10:59:36.093Z,64.0070
2019-04-29T11:00:43.207Z,64.2451
2019-04-29T11:02:01.050Z,65.7969
2019-04-29T11:03:02.207Z,63.3356
2019-04-29T11:04:10.284Z,63.7507
2019-04-29T11:05:14.990Z,63.6011
2019-04-29T11:06:21.057Z,63.9704
2019-04-29T11:07:27.808Z,60.3861
2019-04-29T11:08:33.769Z,66.6621
2019-04-29T11:09:46.233Z,61.1414
2019-04-29T11:11:01.884Z,59.8154
2019-04-29T11:12:04.215Z,62.8260
2019-04-29T11:13:11.056Z,62.7497
2019-04-29T11:14:16.221Z,64.5518
2019-04-29T11:15:21.225Z,65.3040
2019-04-29T11:16:27.676Z,64.0177
2019-04-29T11:17:39.812Z,64.5350
2019-04-29T11:18:47.584Z,65.0202
2019-04-29T11:19:52.938Z,63.6545
2019-04-29T11:20:58.219Z,65.1392
2019-04-29T11:22:04.745Z,63.6103
2019-04-29T11:23:16.650Z,64.1077
2019-04-29T11:24:20.856Z,63.0655
2019-04-29T11:25:26.221Z,60.7309
2019-04-29T11:26:34.665Z,60.6424
2019-04-29T11:27:40.884Z,60.6760
2019-04-29T11:28:51.032Z,60.6485
2019-04-29T11:29:58.601Z,58.1384
2019-04-29T11:31:14.389Z,60.3738
2019-04-29T11:32:29.079Z,56.9757
2019-04-29T11:33:40.164Z,58.6343
2019-04-29T11:34:48.596Z,57.2015
2019-04-29T11:35:59.119Z,59.1363
2019-04-29T11:37:07.273Z,59.2523
2019-04-29T11:38:12.940Z,60.6439
2019-04-29T11:39:18.395Z,60.9186
2019-04-29T11:40:26.022Z,57.6944
2019-04-29T11:41:35.223Z,61.5915
2019-04-29T11:42:41.907Z,59.0143
2019-04-29T11:43:50.988Z,59.7772
2019-04-29T11:45:01.828Z,57.7142
2019-04-29T11:46:10.011Z,59.9985
2019-04-29T11:47:21.035Z,59.0814
2019-04-29T11:48:30.240Z,57.5158
2019-04-29T11:49:36.353Z,61.2558
2019-04-29T11:50:45.206Z,57.1084
2019-04-29T11:52:08.656Z,55.8465
2019-04-29T11:53:02.125Z,58.9639
2019-04-29T11:54:12.256Z,59.0494
2019-04-29T11:55:20.203Z,60.1724
2019-04-29T11:56:25.648Z,63.6011
2019-04-29T11:57:40.789Z,62.7527
2019-04-29T11:58:41.459Z,61.3016
2019-04-29T11:59:49.332Z,61.9791
2019-04-29T12:00:55.543Z,62.3697
2019-04-29T12:02:01.395Z,61.1093
2019-04-29T12:03:07.129Z,61.7746
2019-04-29T12:04:12.223Z,62.5071
2019-04-29T12:05:17.874Z,65.6229
2019-04-29T12:06:23.554Z,62.7680
2019-04-29T12:07:32.430Z,62.8504
2019-04-29T12:08:38.496Z,62.3926
2019-04-29T12:09:43.748Z,62.7939
2019-04-29T12:11:06.763Z,58.3368
2019-04-29T12:12:08.060Z,60.8209
2019-04-29T12:13:13.213Z,61.8326
2019-04-29T12:14:19.144Z,61.0193
2019-04-29T12:15:25.099Z,61.6815
2019-04-29T12:16:30.215Z,61.2024
2019-04-29T12:17:36.240Z,62.6169
2019-04-29T12:18:41.367Z,62.5650
2019-04-29T12:19:47.214Z,65.8701
2019-04-29T12:20:54.003Z,64.8356
2019-04-29T12:22:00.455Z,63.8148
2019-04-29T12:23:05.834Z,64.6220
2019-04-29T12:24:10.230Z,63.1617
2019-04-29T12:25:15.195Z,67.0665
2019-04-29T12:26:20.267Z,64.4190
2019-04-29T12:27:25.206Z,61.4847
2019-04-29T12:28:32.943Z,63.1754
2019-04-29T12:29:42.229Z,64.8188
2019-04-29T12:32:07.731Z,62.6123
2019-04-29T12:33:14.825Z,60.9766
2019-04-29T12:34:21.117Z,61.4023
2019-04-29T12:35:26.323Z,62.8672
2019-04-29T12:36:35.065Z,64.1550
2019-04-29T12:37:42.867Z,64.2969
2019-04-29T12:38:49.598Z,62.8763
2019-04-29T12:39:59.711Z,63.6561
2019-04-29T12:41:04.216Z,64.9409
2019-04-29T12:42:14.039Z,67.9088
2019-04-29T12:43:19.236Z,65.4353
2019-04-29T12:44:34.670Z,66.6163
2019-04-29T12:45:34.284Z,63.8758
2019-04-29T12:46:40.464Z,62.4826
2019-04-29T12:47:45.262Z,63.5905
2019-04-29T12:48:50.978Z,63.3310
2019-04-29T12:49:57.895Z,63.6820
2019-04-29T12:51:04.145Z,64.8722
2019-04-29T12:52:11.690Z,66.0639
2019-04-29T12:53:17.290Z,68.5664
2019-04-29T12:54:22.943Z,66.3752
2019-04-29T12:55:43.702Z,66.7170
2019-04-29T12:56:42.951Z,65.8259
2019-04-29T12:57:51.584Z,66.0304
2019-04-29T12:58:59.689Z,65.4505
2019-04-29T13:00:09.098Z,66.3279
2019-04-29T13:01:15.346Z,67.0939
2019-04-29T13:02:24.461Z,69.0715
2019-04-29T13:03:36.546Z,70.2098
2019-04-29T13:04:45.060Z,67.4372
2019-04-29T13:05:58.281Z,65.7664
2019-04-29T13:07:06.922Z,63.5645
2019-04-29T13:08:12.930Z,64.8768
2019-04-29T13:09:18.767Z,65.8488
2019-04-29T13:10:24.724Z,67.2450
2019-04-29T13:11:45.438Z,69.1402
2019-04-29T13:12:44.236Z,67.7119
2019-04-29T13:13:55.479Z,67.5868
2019-04-29T13:15:02.934Z,69.7353
2019-04-29T13:16:08.914Z,68.9281
2019-04-29T13:17:15.195Z,67.2206
2019-04-29T13:18:23.491Z,68.9052
2019-04-29T13:19:31.103Z,68.9708
2019-04-29T13:20:37.094Z,68.3009
2019-04-29T13:21:44.657Z,71.4092
2019-04-29T13:22:51.900Z,66.1311
2019-04-29T13:24:12.557Z,65.0935
2019-04-29T13:25:08.267Z,64.8768
2019-04-29T13:26:26.998Z,63.9994
2019-04-29T13:27:29.055Z,65.3269
2019-04-29T13:28:34.769Z,64.5975
2019-04-29T13:29:44.969Z,64.3961
2019-04-29T13:30:51.552Z,64.1138
2019-04-29T13:32:01.911Z,66.4302
2019-04-29T13:33:16.645Z,64.5014
2019-04-29T13:34:24.608Z,66.9154
2019-04-29T13:35:31.440Z,66.1784
2019-04-29T13:36:38.078Z,65.0233
2019-04-29T13:37:44.913Z,67.1382
2019-04-29T13:38:51.236Z,66.2654
2019-04-29T13:39:58.219Z,65.3452
2019-04-29T13:41:13.362Z,66.1280
2019-04-29T13:42:15.736Z,67.2496
2019-04-29T13:43:20.657Z,67.1351
2019-04-29T13:44:32.522Z,65.2583
2019-04-29T13:45:39.514Z,63.6362
2019-04-29T13:46:46.196Z,64.9500
2019-04-29T13:47:56.168Z,64.2267
2019-04-29T13:49:12.918Z,63.9216
2019-04-29T13:50:23.150Z,63.5401
2019-04-29T13:51:35.951Z,62.1897
2019-04-29T13:52:37.505Z,62.3697
2019-04-29T13:53:42.527Z,66.8467
2019-04-29T13:54:47.242Z,62.3468
2019-04-29T13:56:10.454Z,64.6861
2019-04-29T13:57:08.802Z,60.0427
2019-04-29T13:58:14.220Z,60.7950
2019-04-29T13:59:20.163Z,64.1321
2019-04-29T14:00:26.348Z,64.3381
2019-04-29T14:01:33.380Z,64.3381
2019-04-29T14:02:39.902Z,63.3799
2019-04-29T14:03:49.507Z,63.6271
2019-04-29T14:04:56.101Z,64.5075